EZY517 LEMG-GCRR
Flight info
| Callsign | EZY517 |
|---|---|
| Flight time | N/A |
| Altitude | 37000 |
| Route | PIMOS N869 GALTO UN869 PELAX UB11 MABAP UN869 ADM UG850 DEVLA |
| Aircraft | A319/M-SDE3FGHIRWY/LB1 |
Departure
| Time | 2026-05-08 07:19 |
|---|---|
| Airport | Málaga-Costa del Sol Airport (LEMG) |
Arrival
| Time | N/A |
|---|---|
| Airport | César Manrique-Lanzarote Airport (GCRR) |
| Time | Latitude | Longitude | Altitude | Speed | Heading |
|---|---|---|---|---|---|
| 2026-05-08 07:17 | 36.68481 | -4.51114 | 54 ft | 0 kts | 217° |
| 2026-05-08 07:17 | 36.68471 | -4.51121 | 57 ft | 8 kts | 206° |
| 2026-05-08 07:18 | 36.68371 | -4.51134 | 61 ft | 16 kts | 158° |
| 2026-05-08 07:18 | 36.68320 | -4.51071 | 58 ft | 0 kts | 134° |
| 2026-05-08 07:18 | 36.68292 | -4.51035 | 60 ft | 29 kts | 134° |
| 2026-05-08 07:19 | 36.67940 | -4.50537 | 54 ft | 120 kts | 131° |
| 2026-05-08 07:19 | 36.67239 | -4.49559 | 266 ft | 168 kts | 130° |
| 2026-05-08 07:19 | 36.66430 | -4.48450 | 907 ft | 182 kts | 130° |
| 2026-05-08 07:19 | 36.65539 | -4.47199 | 1553 ft | 205 kts | 130° |
| 2026-05-08 07:20 | 36.64561 | -4.45823 | 2485 ft | 216 kts | 131° |
| 2026-05-08 07:20 | 36.63549 | -4.44413 | 3571 ft | 220 kts | 133° |
| 2026-05-08 07:20 | 36.62271 | -4.43354 | 4637 ft | 226 kts | 164° |
| 2026-05-08 07:20 | 36.60697 | -4.43363 | 5688 ft | 231 kts | 194° |
| 2026-05-08 07:21 | 36.59153 | -4.43915 | 6658 ft | 231 kts | 197° |
| 2026-05-08 07:21 | 36.57609 | -4.44491 | 7551 ft | 232 kts | 198° |
| 2026-05-08 07:21 | 36.56058 | -4.45072 | 8470 ft | 234 kts | 199° |
| 2026-05-08 07:21 | 36.54494 | -4.45661 | 9411 ft | 235 kts | 202° |
| 2026-05-08 07:22 | 36.53060 | -4.46587 | 10199 ft | 241 kts | 217° |
| 2026-05-08 07:22 | 36.51725 | -4.48042 | 10547 ft | 264 kts | 224° |
| 2026-05-08 07:22 | 36.50334 | -4.49642 | 10857 ft | 288 kts | 224° |
| 2026-05-08 07:22 | 36.48801 | -4.51393 | 11136 ft | 311 kts | 223° |
| 2026-05-08 07:23 | 36.47129 | -4.53294 | 11540 ft | 328 kts | 223° |
| 2026-05-08 07:23 | 36.45424 | -4.55221 | 12266 ft | 333 kts | 223° |
| 2026-05-08 07:23 | 36.43700 | -4.57163 | 13101 ft | 335 kts | 223° |
| 2026-05-08 07:23 | 36.41966 | -4.59116 | 13917 ft | 337 kts | 223° |
| 2026-05-08 07:24 | 36.40221 | -4.61082 | 14627 ft | 340 kts | 223° |
| 2026-05-08 07:24 | 36.38461 | -4.63065 | 15318 ft | 343 kts | 224° |
| 2026-05-08 07:24 | 36.36709 | -4.65042 | 15988 ft | 347 kts | 224° |
| 2026-05-08 07:24 | 36.34915 | -4.67064 | 16666 ft | 350 kts | 224° |
| 2026-05-08 07:25 | 36.33076 | -4.69132 | 17337 ft | 354 kts | 225° |
| 2026-05-08 07:25 | 36.31265 | -4.71164 | 17988 ft | 358 kts | 225° |
| 2026-05-08 07:25 | 36.27539 | -4.75342 | 19186 ft | 364 kts | 225° |
| 2026-05-08 07:26 | 36.25656 | -4.77460 | 19777 ft | 366 kts | 225° |
| 2026-05-08 07:26 | 36.23763 | -4.79586 | 20368 ft | 369 kts | 225° |
| 2026-05-08 07:26 | 36.21858 | -4.81723 | 20951 ft | 371 kts | 225° |
| 2026-05-08 07:26 | 36.19941 | -4.83867 | 21521 ft | 373 kts | 225° |
| 2026-05-08 07:27 | 36.18013 | -4.86022 | 22080 ft | 375 kts | 225° |
| 2026-05-08 07:27 | 36.16072 | -4.88191 | 22631 ft | 377 kts | 225° |
| 2026-05-08 07:27 | 36.14130 | -4.90381 | 23162 ft | 378 kts | 226° |
| 2026-05-08 07:27 | 36.12248 | -4.92662 | 23651 ft | 380 kts | 229° |
| 2026-05-08 07:28 | 36.10411 | -4.95020 | 24110 ft | 381 kts | 230° |
| 2026-05-08 07:28 | 36.08586 | -4.97411 | 24570 ft | 383 kts | 230° |
| 2026-05-08 07:28 | 36.06758 | -4.99809 | 25022 ft | 384 kts | 230° |
| 2026-05-08 07:28 | 36.04912 | -5.02209 | 25472 ft | 386 kts | 229° |
| 2026-05-08 07:29 | 36.03050 | -5.04603 | 25917 ft | 387 kts | 229° |
| 2026-05-08 07:29 | 36.01169 | -5.06996 | 26347 ft | 389 kts | 229° |
| 2026-05-08 07:29 | 35.99278 | -5.09392 | 26768 ft | 390 kts | 229° |
| 2026-05-08 07:29 | 35.97377 | -5.11795 | 27176 ft | 392 kts | 229° |
| 2026-05-08 07:30 | 35.96112 | -5.13391 | 27442 ft | 393 kts | 229° |
| 2026-05-08 07:30 | 35.94199 | -5.15806 | 27839 ft | 394 kts | 229° |
| 2026-05-08 07:30 | 35.92278 | -5.18230 | 28230 ft | 396 kts | 229° |
| 2026-05-08 07:30 | 35.90348 | -5.20664 | 28607 ft | 397 kts | 229° |
| 2026-05-08 07:31 | 35.88411 | -5.23106 | 28988 ft | 399 kts | 229° |
| 2026-05-08 07:31 | 35.86470 | -5.25551 | 29428 ft | 399 kts | 229° |
| 2026-05-08 07:31 | 35.84537 | -5.27985 | 29985 ft | 396 kts | 229° |
| 2026-05-08 07:31 | 35.82616 | -5.30409 | 30470 ft | 394 kts | 229° |
| 2026-05-08 07:32 | 35.80709 | -5.32815 | 30922 ft | 392 kts | 229° |
| 2026-05-08 07:32 | 35.78809 | -5.35209 | 31368 ft | 390 kts | 229° |
| 2026-05-08 07:32 | 35.76914 | -5.37592 | 31814 ft | 388 kts | 229° |
| 2026-05-08 07:32 | 35.75003 | -5.39993 | 32281 ft | 387 kts | 229° |
| 2026-05-08 07:33 | 35.73125 | -5.42350 | 32729 ft | 385 kts | 229° |
| 2026-05-08 07:33 | 35.71255 | -5.44694 | 33167 ft | 383 kts | 229° |
| 2026-05-08 07:33 | 35.69394 | -5.47029 | 33593 ft | 382 kts | 230° |
| 2026-05-08 07:33 | 35.67562 | -5.49322 | 34054 ft | 380 kts | 230° |
| 2026-05-08 07:34 | 35.65715 | -5.51631 | 34448 ft | 378 kts | 230° |
| 2026-05-08 07:34 | 35.63872 | -5.53934 | 34793 ft | 378 kts | 229° |
| 2026-05-08 07:34 | 35.62031 | -5.56236 | 35131 ft | 377 kts | 229° |
| 2026-05-08 07:34 | 35.60195 | -5.58533 | 35453 ft | 376 kts | 229° |
| 2026-05-08 07:35 | 35.58359 | -5.60827 | 35788 ft | 376 kts | 229° |
| 2026-05-08 07:35 | 35.56524 | -5.63114 | 36125 ft | 376 kts | 229° |
| 2026-05-08 07:35 | 35.54691 | -5.65395 | 36436 ft | 375 kts | 229° |
| 2026-05-08 07:35 | 35.52859 | -5.67673 | 36739 ft | 375 kts | 229° |
| 2026-05-08 07:36 | 35.51026 | -5.69953 | 36912 ft | 375 kts | 229° |
| 2026-05-08 07:36 | 35.47360 | -5.74508 | 36942 ft | 375 kts | 229° |
| 2026-05-08 07:37 | 35.43697 | -5.79062 | 36941 ft | 375 kts | 229° |
| 2026-05-08 07:37 | 35.40033 | -5.83606 | 36940 ft | 375 kts | 229° |
| 2026-05-08 07:38 | 35.36367 | -5.88142 | 36941 ft | 374 kts | 229° |
| 2026-05-08 07:38 | 35.32700 | -5.92669 | 36945 ft | 374 kts | 229° |
| 2026-05-08 07:39 | 35.29034 | -5.97197 | 36941 ft | 374 kts | 229° |
| 2026-05-08 07:39 | 35.25364 | -6.01719 | 36940 ft | 374 kts | 229° |
| 2026-05-08 07:40 | 35.21696 | -6.06233 | 36939 ft | 374 kts | 229° |
| 2026-05-08 07:40 | 35.18029 | -6.10739 | 36937 ft | 374 kts | 229° |
| 2026-05-08 07:41 | 35.14368 | -6.15242 | 36937 ft | 373 kts | 229° |
| 2026-05-08 07:41 | 35.10709 | -6.19737 | 36939 ft | 373 kts | 229° |
| 2026-05-08 07:42 | 35.07043 | -6.24229 | 36937 ft | 373 kts | 229° |
| 2026-05-08 07:42 | 35.03377 | -6.28709 | 36943 ft | 373 kts | 229° |
| 2026-05-08 07:43 | 34.99711 | -6.33184 | 36942 ft | 372 kts | 229° |
| 2026-05-08 07:43 | 34.96050 | -6.37650 | 36946 ft | 372 kts | 229° |
| 2026-05-08 07:44 | 34.92417 | -6.42068 | 36946 ft | 371 kts | 229° |
| 2026-05-08 07:44 | 34.88767 | -6.46513 | 36946 ft | 371 kts | 230° |
| 2026-05-08 07:45 | 34.85119 | -6.50956 | 36950 ft | 371 kts | 230° |
| 2026-05-08 07:45 | 34.81468 | -6.55390 | 36950 ft | 371 kts | 229° |
| 2026-05-08 07:46 | 34.77815 | -6.59812 | 36951 ft | 370 kts | 230° |
| 2026-05-08 07:46 | 34.74162 | -6.64229 | 36953 ft | 370 kts | 230° |
| 2026-05-08 07:47 | 34.70510 | -6.68630 | 36952 ft | 370 kts | 230° |
| 2026-05-08 07:47 | 34.66863 | -6.73033 | 36953 ft | 369 kts | 230° |
| 2026-05-08 07:48 | 34.63220 | -6.77425 | 36953 ft | 369 kts | 230° |
| 2026-05-08 07:48 | 34.59580 | -6.81807 | 36955 ft | 368 kts | 230° |
| 2026-05-08 07:49 | 34.55945 | -6.86179 | 36961 ft | 368 kts | 230° |
| 2026-05-08 07:49 | 34.52310 | -6.90543 | 36960 ft | 367 kts | 230° |
| 2026-05-08 07:50 | 34.48681 | -6.94903 | 36964 ft | 367 kts | 230° |
| 2026-05-08 07:50 | 34.45052 | -6.99249 | 36966 ft | 367 kts | 230° |
| 2026-05-08 07:51 | 34.41425 | -7.03583 | 36972 ft | 366 kts | 230° |
| 2026-05-08 07:51 | 34.37800 | -7.07912 | 36975 ft | 366 kts | 230° |
| 2026-05-08 07:52 | 34.34176 | -7.12231 | 36978 ft | 365 kts | 230° |
| 2026-05-08 07:52 | 34.30558 | -7.16542 | 36977 ft | 365 kts | 230° |
| 2026-05-08 07:53 | 34.26942 | -7.20848 | 36969 ft | 365 kts | 230° |
| 2026-05-08 07:53 | 34.23327 | -7.25143 | 36971 ft | 364 kts | 230° |
| 2026-05-08 07:54 | 34.19732 | -7.29403 | 36964 ft | 364 kts | 230° |
| 2026-05-08 07:54 | 34.16119 | -7.33688 | 36968 ft | 364 kts | 230° |
| 2026-05-08 07:55 | 34.12506 | -7.37967 | 36971 ft | 364 kts | 230° |
| 2026-05-08 07:55 | 34.08894 | -7.42248 | 36968 ft | 364 kts | 230° |
| 2026-05-08 07:56 | 34.05282 | -7.46515 | 36969 ft | 364 kts | 230° |
| 2026-05-08 07:56 | 34.01666 | -7.50777 | 36974 ft | 363 kts | 230° |
| 2026-05-08 07:57 | 33.98054 | -7.55028 | 36971 ft | 363 kts | 230° |
| 2026-05-08 07:57 | 33.94435 | -7.59283 | 36970 ft | 363 kts | 230° |
| 2026-05-08 07:58 | 33.90821 | -7.63530 | 36965 ft | 363 kts | 230° |
| 2026-05-08 07:58 | 33.87203 | -7.67772 | 36964 ft | 363 kts | 230° |
| 2026-05-08 07:59 | 33.83585 | -7.72009 | 36966 ft | 363 kts | 230° |
| 2026-05-08 07:59 | 33.79971 | -7.76243 | 36968 ft | 363 kts | 230° |
| 2026-05-08 08:00 | 33.76355 | -7.80469 | 36970 ft | 362 kts | 230° |
| 2026-05-08 08:00 | 33.72735 | -7.84682 | 36966 ft | 362 kts | 230° |
| 2026-05-08 08:01 | 33.69116 | -7.88899 | 36964 ft | 362 kts | 230° |
| 2026-05-08 08:01 | 33.65502 | -7.93114 | 36975 ft | 362 kts | 230° |
| 2026-05-08 08:02 | 33.61885 | -7.97322 | 36978 ft | 362 kts | 230° |
| 2026-05-08 08:02 | 33.58292 | -8.01497 | 36982 ft | 362 kts | 230° |
| 2026-05-08 08:03 | 33.54678 | -8.05698 | 36982 ft | 362 kts | 230° |
| 2026-05-08 08:03 | 33.51060 | -8.09895 | 36983 ft | 362 kts | 230° |
| 2026-05-08 08:04 | 33.47443 | -8.14079 | 36979 ft | 362 kts | 230° |
| 2026-05-08 08:04 | 33.43823 | -8.18259 | 36982 ft | 361 kts | 230° |
| 2026-05-08 08:05 | 33.40206 | -8.22431 | 36988 ft | 361 kts | 230° |
| 2026-05-08 08:05 | 33.36590 | -8.26606 | 36986 ft | 361 kts | 230° |
| 2026-05-08 08:06 | 33.32974 | -8.30780 | 36984 ft | 361 kts | 230° |
| 2026-05-08 08:06 | 33.29352 | -8.34947 | 36984 ft | 361 kts | 230° |
| 2026-05-08 08:07 | 33.25727 | -8.39104 | 36986 ft | 361 kts | 230° |
| 2026-05-08 08:07 | 33.22098 | -8.43260 | 36986 ft | 361 kts | 230° |
| 2026-05-08 08:08 | 33.18473 | -8.47421 | 36984 ft | 361 kts | 230° |
| 2026-05-08 08:08 | 33.14852 | -8.51580 | 36982 ft | 361 kts | 230° |
| 2026-05-08 08:09 | 33.11223 | -8.55734 | 36982 ft | 362 kts | 230° |
| 2026-05-08 08:09 | 33.07585 | -8.59879 | 36981 ft | 362 kts | 230° |
| 2026-05-08 08:10 | 33.03948 | -8.64027 | 36980 ft | 362 kts | 230° |
| 2026-05-08 08:10 | 33.00334 | -8.68144 | 36979 ft | 362 kts | 230° |
| 2026-05-08 08:11 | 32.96690 | -8.72295 | 36977 ft | 362 kts | 230° |
| 2026-05-08 08:11 | 32.93018 | -8.76471 | 36979 ft | 363 kts | 230° |
| 2026-05-08 08:12 | 32.89368 | -8.80613 | 36974 ft | 363 kts | 230° |
| 2026-05-08 08:12 | 32.85711 | -8.84755 | 36975 ft | 363 kts | 230° |
| 2026-05-08 08:13 | 32.82052 | -8.88903 | 36976 ft | 363 kts | 230° |
| 2026-05-08 08:13 | 32.78386 | -8.93049 | 36978 ft | 364 kts | 230° |
| 2026-05-08 08:14 | 32.74716 | -8.97192 | 36978 ft | 364 kts | 230° |
| 2026-05-08 08:14 | 32.71040 | -9.01338 | 36979 ft | 364 kts | 230° |
| 2026-05-08 08:15 | 32.67384 | -9.05459 | 36975 ft | 365 kts | 230° |
| 2026-05-08 08:15 | 32.63704 | -9.09606 | 36968 ft | 365 kts | 230° |
| 2026-05-08 08:16 | 32.60016 | -9.13751 | 36970 ft | 366 kts | 230° |
| 2026-05-08 08:16 | 32.56319 | -9.17900 | 36967 ft | 366 kts | 230° |
| 2026-05-08 08:17 | 32.53223 | -9.21379 | 36970 ft | 366 kts | 229° |
| 2026-05-08 08:17 | 32.49540 | -9.25504 | 36971 ft | 367 kts | 229° |
| 2026-05-08 08:18 | 32.45828 | -9.29660 | 36967 ft | 367 kts | 229° |
| 2026-05-08 08:18 | 32.42087 | -9.33849 | 36971 ft | 368 kts | 229° |
| 2026-05-08 08:19 | 32.38388 | -9.37978 | 36972 ft | 368 kts | 229° |
| 2026-05-08 08:19 | 32.34654 | -9.42135 | 36973 ft | 369 kts | 229° |
| 2026-05-08 08:20 | 32.30920 | -9.46298 | 36977 ft | 369 kts | 229° |
| 2026-05-08 08:20 | 32.27177 | -9.50461 | 36977 ft | 370 kts | 229° |
| 2026-05-08 08:21 | 32.23432 | -9.54629 | 36978 ft | 370 kts | 229° |
| 2026-05-08 08:21 | 32.19679 | -9.58801 | 36979 ft | 371 kts | 229° |
| 2026-05-08 08:22 | 32.15919 | -9.62968 | 36981 ft | 371 kts | 229° |
| 2026-05-08 08:22 | 32.12151 | -9.67136 | 36978 ft | 371 kts | 229° |
| 2026-05-08 08:23 | 32.08379 | -9.71308 | 36982 ft | 372 kts | 229° |
| 2026-05-08 08:23 | 32.04604 | -9.75482 | 36981 ft | 372 kts | 229° |
| 2026-05-08 08:24 | 32.00819 | -9.79656 | 36985 ft | 373 kts | 229° |
| 2026-05-08 08:24 | 31.97030 | -9.83836 | 36987 ft | 373 kts | 229° |
| 2026-05-08 08:25 | 31.93239 | -9.88016 | 36993 ft | 374 kts | 229° |
| 2026-05-08 08:25 | 31.89443 | -9.92196 | 36991 ft | 374 kts | 228° |
| 2026-05-08 08:26 | 31.85632 | -9.96373 | 36993 ft | 375 kts | 228° |
| 2026-05-08 08:26 | 31.81819 | -10.00549 | 36999 ft | 375 kts | 228° |
| 2026-05-08 08:27 | 31.77999 | -10.04731 | 37004 ft | 375 kts | 228° |
| 2026-05-08 08:27 | 31.74180 | -10.08917 | 37005 ft | 376 kts | 228° |
| 2026-05-08 08:28 | 31.70352 | -10.13101 | 37007 ft | 376 kts | 228° |
| 2026-05-08 08:28 | 31.66514 | -10.17283 | 37009 ft | 376 kts | 228° |
| 2026-05-08 08:29 | 31.62679 | -10.21468 | 37002 ft | 377 kts | 228° |
| 2026-05-08 08:29 | 31.58841 | -10.25657 | 37004 ft | 377 kts | 228° |
| 2026-05-08 08:30 | 31.54996 | -10.29842 | 37000 ft | 377 kts | 228° |
| 2026-05-08 08:30 | 31.49216 | -10.36116 | 37005 ft | 378 kts | 228° |
| 2026-05-08 08:31 | 31.45360 | -10.40303 | 37004 ft | 378 kts | 228° |
| 2026-05-08 08:31 | 31.41499 | -10.44492 | 37009 ft | 379 kts | 227° |
| 2026-05-08 08:32 | 31.37626 | -10.48673 | 37008 ft | 379 kts | 227° |
| 2026-05-08 08:32 | 31.33755 | -10.52858 | 37005 ft | 379 kts | 227° |
| 2026-05-08 08:33 | 31.29879 | -10.57050 | 37006 ft | 379 kts | 227° |
| 2026-05-08 08:33 | 31.26001 | -10.61237 | 37008 ft | 380 kts | 227° |
| 2026-05-08 08:34 | 31.22115 | -10.65427 | 37009 ft | 380 kts | 227° |
| 2026-05-08 08:34 | 31.18220 | -10.69605 | 37011 ft | 380 kts | 227° |
| 2026-05-08 08:35 | 31.14322 | -10.73787 | 37008 ft | 380 kts | 227° |
| 2026-05-08 08:35 | 31.10432 | -10.77973 | 37014 ft | 381 kts | 227° |
| 2026-05-08 08:36 | 31.06532 | -10.82154 | 37009 ft | 381 kts | 227° |
| 2026-05-08 08:36 | 31.02629 | -10.86333 | 37012 ft | 381 kts | 227° |
| 2026-05-08 08:37 | 30.98722 | -10.90515 | 37011 ft | 381 kts | 227° |
| 2026-05-08 08:37 | 30.94816 | -10.94692 | 37009 ft | 381 kts | 227° |
| 2026-05-08 08:38 | 30.90900 | -10.98866 | 37007 ft | 382 kts | 227° |
| 2026-05-08 08:38 | 30.86982 | -11.03039 | 37012 ft | 382 kts | 227° |
| 2026-05-08 08:39 | 30.83063 | -11.07213 | 37009 ft | 382 kts | 227° |
| 2026-05-08 08:39 | 30.79137 | -11.11391 | 37011 ft | 383 kts | 227° |
| 2026-05-08 08:40 | 30.75206 | -11.15564 | 37013 ft | 383 kts | 227° |
| 2026-05-08 08:40 | 30.71269 | -11.19740 | 37016 ft | 383 kts | 227° |
| 2026-05-08 08:41 | 30.67329 | -11.23908 | 37015 ft | 383 kts | 227° |
| 2026-05-08 08:41 | 30.63386 | -11.28076 | 37013 ft | 383 kts | 227° |
| 2026-05-08 08:42 | 30.59452 | -11.32245 | 37008 ft | 383 kts | 227° |
| 2026-05-08 08:42 | 30.55518 | -11.36416 | 37004 ft | 383 kts | 227° |
| 2026-05-08 08:43 | 30.51567 | -11.40572 | 37005 ft | 384 kts | 227° |
| 2026-05-08 08:43 | 30.47637 | -11.44700 | 37004 ft | 384 kts | 227° |
| 2026-05-08 08:44 | 30.43683 | -11.48876 | 37007 ft | 384 kts | 227° |
| 2026-05-08 08:44 | 30.39722 | -11.53041 | 37011 ft | 385 kts | 227° |
| 2026-05-08 08:45 | 30.35755 | -11.57207 | 37015 ft | 385 kts | 227° |
| 2026-05-08 08:45 | 30.31780 | -11.61382 | 37016 ft | 386 kts | 227° |
| 2026-05-08 08:46 | 30.27795 | -11.65552 | 37020 ft | 386 kts | 227° |
| 2026-05-08 08:46 | 30.23807 | -11.69722 | 37024 ft | 386 kts | 227° |
| 2026-05-08 08:47 | 30.19821 | -11.73889 | 37023 ft | 386 kts | 227° |
| 2026-05-08 08:47 | 30.15835 | -11.78054 | 37019 ft | 386 kts | 227° |
| 2026-05-08 08:48 | 30.11849 | -11.82216 | 37017 ft | 386 kts | 227° |
| 2026-05-08 08:48 | 30.07852 | -11.86373 | 37020 ft | 387 kts | 227° |
| 2026-05-08 08:49 | 30.03853 | -11.90528 | 37020 ft | 387 kts | 227° |
| 2026-05-08 08:49 | 29.99850 | -11.94685 | 37016 ft | 387 kts | 226° |
| 2026-05-08 08:50 | 29.95847 | -11.98836 | 37019 ft | 387 kts | 227° |
| 2026-05-08 08:50 | 29.91836 | -12.02993 | 37019 ft | 388 kts | 226° |
| 2026-05-08 08:51 | 29.87826 | -12.07148 | 37018 ft | 388 kts | 226° |
| 2026-05-08 08:51 | 29.83820 | -12.11309 | 37022 ft | 388 kts | 227° |
| 2026-05-08 08:52 | 29.79805 | -12.15459 | 37023 ft | 388 kts | 226° |
| 2026-05-08 08:52 | 29.75783 | -12.19606 | 37018 ft | 388 kts | 226° |
| 2026-05-08 08:53 | 29.71742 | -12.23777 | 36028 ft | 397 kts | 226° |
| 2026-05-08 08:53 | 29.69673 | -12.25912 | 35033 ft | 403 kts | 226° |
| 2026-05-08 08:53 | 29.67601 | -12.28048 | 34181 ft | 406 kts | 226° |
| 2026-05-08 08:54 | 29.65497 | -12.30213 | 33255 ft | 407 kts | 226° |
| 2026-05-08 08:54 | 29.63378 | -12.32389 | 32259 ft | 409 kts | 226° |
| 2026-05-08 08:54 | 29.61251 | -12.34578 | 31227 ft | 412 kts | 226° |
| 2026-05-08 08:54 | 29.59106 | -12.36785 | 30178 ft | 416 kts | 226° |
| 2026-05-08 08:55 | 29.56940 | -12.39009 | 28907 ft | 419 kts | 226° |
| 2026-05-08 08:55 | 29.54753 | -12.41253 | 27562 ft | 424 kts | 225° |
| 2026-05-08 08:55 | 29.52540 | -12.43522 | 26170 ft | 429 kts | 225° |
| 2026-05-08 08:55 | 29.50296 | -12.45825 | 24828 ft | 435 kts | 225° |
| 2026-05-08 08:56 | 29.48045 | -12.48130 | 23964 ft | 430 kts | 225° |
| 2026-05-08 08:56 | 29.45830 | -12.50388 | 23065 ft | 423 kts | 225° |
| 2026-05-08 08:56 | 29.43639 | -12.52617 | 22090 ft | 419 kts | 224° |
| 2026-05-08 08:56 | 29.41471 | -12.54826 | 21152 ft | 415 kts | 224° |
| 2026-05-08 08:57 | 29.39320 | -12.57019 | 20264 ft | 412 kts | 224° |
| 2026-05-08 08:57 | 29.37183 | -12.59199 | 19411 ft | 410 kts | 224° |
| 2026-05-08 08:57 | 29.35059 | -12.61367 | 18590 ft | 408 kts | 224° |
| 2026-05-08 08:57 | 29.32946 | -12.63530 | 17711 ft | 406 kts | 224° |
| 2026-05-08 08:58 | 29.30848 | -12.65676 | 16855 ft | 404 kts | 224° |
| 2026-05-08 08:58 | 29.28757 | -12.67809 | 16056 ft | 401 kts | 223° |
| 2026-05-08 08:58 | 29.26681 | -12.69928 | 15306 ft | 398 kts | 225° |
| 2026-05-08 08:58 | 29.24843 | -12.72280 | 14601 ft | 394 kts | 234° |
| 2026-05-08 08:59 | 29.23416 | -12.74939 | 13933 ft | 392 kts | 244° |
| 2026-05-08 08:59 | 29.22196 | -12.77718 | 13210 ft | 390 kts | 244° |
| 2026-05-08 08:59 | 29.20973 | -12.80476 | 12491 ft | 387 kts | 243° |
| 2026-05-08 08:59 | 29.19755 | -12.83208 | 11781 ft | 384 kts | 243° |
| 2026-05-08 09:00 | 29.18546 | -12.85916 | 11074 ft | 380 kts | 243° |
| 2026-05-08 09:00 | 29.17348 | -12.88599 | 10348 ft | 377 kts | 243° |
| 2026-05-08 09:00 | 29.16560 | -12.90362 | 9859 ft | 375 kts | 243° |
| 2026-05-08 09:00 | 29.15379 | -12.93003 | 9038 ft | 371 kts | 243° |
| 2026-05-08 09:01 | 29.14211 | -12.95616 | 8330 ft | 365 kts | 243° |
| 2026-05-08 09:01 | 29.13100 | -12.98100 | 8098 ft | 335 kts | 243° |
| 2026-05-08 09:01 | 29.12087 | -13.00359 | 8027 ft | 303 kts | 243° |
| 2026-05-08 09:01 | 29.11174 | -13.02398 | 8036 ft | 276 kts | 243° |
| 2026-05-08 09:02 | 29.10311 | -13.04329 | 8042 ft | 271 kts | 243° |
| 2026-05-08 09:02 | 29.09457 | -13.06246 | 8041 ft | 270 kts | 243° |
| 2026-05-08 09:02 | 29.08603 | -13.08154 | 8044 ft | 270 kts | 243° |
| 2026-05-08 09:02 | 29.07747 | -13.10059 | 8040 ft | 269 kts | 243° |
| 2026-05-08 09:03 | 29.06892 | -13.11964 | 8043 ft | 270 kts | 243° |
| 2026-05-08 09:03 | 29.06034 | -13.13871 | 8042 ft | 269 kts | 243° |
| 2026-05-08 09:03 | 29.05179 | -13.15775 | 8043 ft | 269 kts | 243° |
| 2026-05-08 09:03 | 29.04325 | -13.17681 | 8043 ft | 269 kts | 243° |
| 2026-05-08 09:04 | 29.03469 | -13.19585 | 8038 ft | 269 kts | 243° |
| 2026-05-08 09:04 | 29.02611 | -13.21486 | 8045 ft | 269 kts | 243° |
| 2026-05-08 09:04 | 29.01743 | -13.23407 | 7717 ft | 277 kts | 243° |
| 2026-05-08 09:04 | 29.00845 | -13.25398 | 6725 ft | 287 kts | 244° |
| 2026-05-08 09:05 | 28.99945 | -13.27393 | 6257 ft | 275 kts | 244° |
| 2026-05-08 09:05 | 28.99074 | -13.29274 | 6098 ft | 265 kts | 240° |
| 2026-05-08 09:05 | 28.97895 | -13.30890 | 6020 ft | 266 kts | 224° |
| 2026-05-08 09:05 | 28.96475 | -13.32004 | 6026 ft | 270 kts | 209° |
| 2026-05-08 09:06 | 28.94723 | -13.32755 | 6023 ft | 262 kts | 201° |
| 2026-05-08 09:06 | 28.93069 | -13.33368 | 6021 ft | 243 kts | 201° |
| 2026-05-08 09:06 | 28.91468 | -13.33863 | 6025 ft | 243 kts | 191° |
| 2026-05-08 09:06 | 28.89774 | -13.33867 | 6023 ft | 246 kts | 174° |
| 2026-05-08 09:07 | 28.88123 | -13.33313 | 6027 ft | 250 kts | 157° |
| 2026-05-08 09:07 | 28.86563 | -13.32428 | 6027 ft | 251 kts | 156° |
| 2026-05-08 09:07 | 28.84978 | -13.31537 | 6027 ft | 251 kts | 156° |
| 2026-05-08 09:07 | 28.83413 | -13.30659 | 6032 ft | 251 kts | 156° |
| 2026-05-08 09:08 | 28.81872 | -13.29792 | 6035 ft | 250 kts | 156° |
| 2026-05-08 09:08 | 28.80289 | -13.28904 | 6037 ft | 250 kts | 156° |
| 2026-05-08 09:08 | 28.78698 | -13.28113 | 6036 ft | 248 kts | 166° |
| 2026-05-08 09:08 | 28.77031 | -13.27807 | 6043 ft | 245 kts | 182° |
| 2026-05-08 09:09 | 28.75337 | -13.27890 | 6043 ft | 244 kts | 186° |
| 2026-05-08 09:09 | 28.73643 | -13.27986 | 6045 ft | 244 kts | 186° |
| 2026-05-08 09:09 | 28.71948 | -13.28075 | 6046 ft | 244 kts | 186° |
| 2026-05-08 09:09 | 28.70254 | -13.28163 | 6050 ft | 244 kts | 186° |
| 2026-05-08 09:10 | 28.68587 | -13.28418 | 6045 ft | 240 kts | 203° |
| 2026-05-08 09:10 | 28.67192 | -13.29393 | 6046 ft | 235 kts | 228° |
| 2026-05-08 09:10 | 28.66325 | -13.30930 | 6051 ft | 231 kts | 253° |
| 2026-05-08 09:10 | 28.66110 | -13.32717 | 6051 ft | 229 kts | 276° |
| 2026-05-08 09:11 | 28.66499 | -13.34472 | 5998 ft | 231 kts | 288° |
| 2026-05-08 09:11 | 28.66996 | -13.36258 | 5292 ft | 239 kts | 288° |
| 2026-05-08 09:11 | 28.67473 | -13.38010 | 5086 ft | 224 kts | 288° |
| 2026-05-08 09:11 | 28.67931 | -13.39698 | 5050 ft | 222 kts | 288° |
| 2026-05-08 09:12 | 28.68386 | -13.41380 | 5048 ft | 222 kts | 288° |
| 2026-05-08 09:12 | 28.68852 | -13.43056 | 5038 ft | 222 kts | 291° |
| 2026-05-08 09:12 | 28.69455 | -13.44675 | 5042 ft | 222 kts | 293° |
| 2026-05-08 09:12 | 28.70054 | -13.46292 | 5036 ft | 222 kts | 293° |
| 2026-05-08 09:13 | 28.70651 | -13.47911 | 5040 ft | 222 kts | 293° |
| 2026-05-08 09:13 | 28.71247 | -13.49529 | 5033 ft | 222 kts | 293° |
| 2026-05-08 09:13 | 28.71845 | -13.51146 | 5037 ft | 222 kts | 293° |
| 2026-05-08 09:13 | 28.72445 | -13.52761 | 5031 ft | 221 kts | 293° |
| 2026-05-08 09:14 | 28.73045 | -13.54379 | 5030 ft | 222 kts | 293° |
| 2026-05-08 09:14 | 28.73651 | -13.56018 | 5032 ft | 222 kts | 293° |
| 2026-05-08 09:14 | 28.74240 | -13.57614 | 5029 ft | 222 kts | 292° |
| 2026-05-08 09:14 | 28.74837 | -13.59232 | 5027 ft | 221 kts | 292° |
| 2026-05-08 09:15 | 28.75433 | -13.60848 | 5027 ft | 221 kts | 292° |
| 2026-05-08 09:15 | 28.76032 | -13.62472 | 5023 ft | 213 kts | 292° |
| 2026-05-08 09:15 | 28.76579 | -13.63951 | 5021 ft | 202 kts | 292° |
| 2026-05-08 09:15 | 28.77122 | -13.65424 | 5022 ft | 201 kts | 292° |
| 2026-05-08 09:16 | 28.77664 | -13.66892 | 5023 ft | 201 kts | 292° |
| 2026-05-08 09:16 | 28.78319 | -13.68293 | 5012 ft | 202 kts | 314° |
| 2026-05-08 09:16 | 28.79582 | -13.68879 | 5517 ft | 200 kts | 356° |
| 2026-05-08 09:16 | 28.80977 | -13.68586 | 6215 ft | 219 kts | 15° |
| 2026-05-08 09:17 | 28.82430 | -13.67871 | 5996 ft | 236 kts | 23° |
| 2026-05-08 09:17 | 28.83909 | -13.66972 | 5612 ft | 237 kts | 26° |
| 2026-05-08 09:17 | 28.85291 | -13.66085 | 5467 ft | 214 kts | 25° |
| 2026-05-08 09:17 | 28.86510 | -13.65309 | 4949 ft | 193 kts | 24° |
| 2026-05-08 09:18 | 28.87677 | -13.64590 | 4228 ft | 188 kts | 24° |